Terminal Aerodrome Forecast
Issued by NWS

Home | Current Version | Previous Version | Text Only | Print | Product List | Glossary On
Versions: 1 2 3 4 5 6 7 8 9 10 11 12 13 14 15 16 17 18 19 20 21 22 23 24 25 26 27 28
000
FTUS46 KSGX 011700
TAFSAN
TAF
KSAN 011727Z 0118/0224 VRB05KT P6SM FEW200
     FM012000 29008KT P6SM FEW200
     FM020100 VRB04KT P6SM VCFG FEW004 SCT200
     FM020900 VRB03KT 2SM BR VCFG SCT003 SCT200
      TEMPO 0211/0214 1SM BR BKN003
     FM021600 VRB04KT P6SM FEW004 BKN200
     FM022000 29008KT P6SM BKN200=

USA.gov is the U.S. government's official web portal to all federal, state and local government web resources and services.